This is the latest recevied weather packets stored in our database for station/object ZL2ARL. If no packets are shown the sender has not sent any weather packets the latest 10 day(s).
| Time | Temp. | Humidity | Pressure | Rain* | Wind** | Luminosity | Snow |
|---|---|---|---|---|---|---|---|
| 1777981835 | 11.11° C | 75% | 1030.2 hPa | 0 mm | - | 0 W/m² | - |
| 1777976431 | 10.56° C | 76% | 1030.6 hPa | 0 mm | - | 0 W/m² | - |
| 1777975826 | 10.56° C | 77% | 1030.6 hPa | 0 mm | - | 0 W/m² | - |
| 1777973426 | 11.11° C | 75% | 1030.7 hPa | 0 mm | - | 0 W/m² | - |
| 1777966247 | 10.56° C | 80% | 1031 hPa | 0 mm | - | 0 W/m² | - |
| 1777964432 | 10° C | 80% | 1031 hPa | 0 mm | - | 0 W/m² | - |
| 1777960823 | 10.56° C | 80% | 1031 hPa | 0 mm | - | 0 W/m² | - |
| 1777959653 | 10.56° C | 79% | 1030.9 hPa | 0 mm | - | 1 W/m² | - |
| 1777956649 | 11.67° C | 77% | 1031.2 hPa | 0 mm | - | 32 W/m² | - |
| 1777954229 | 11.67° C | 75% | 1031.2 hPa | 0 mm | - | 78 W/m² | - |
| 1777951224 | 12.78° C | 70% | 1031.4 hPa | 0 mm | - | 147 W/m² | - |
| 1777950619 | 13.33° C | 69% | 1031.3 hPa | 0 mm | - | 182 W/m² | - |
| 1777947635 | 13.89° C | 69% | 1031.3 hPa | 0 mm | - | 348 W/m² | - |
| 1777947050 | 13.33° C | 69% | 1031.3 hPa | 0 mm | - | 351 W/m² | - |
| 1777944025 | 13.33° C | 69% | 1031.9 hPa | 0 mm | - | 351 W/m² | - |
| 1777941625 | 13.33° C | 71% | 1032.5 hPa | 0 mm | - | 275 W/m² | - |
| 1777941020 | 13.33° C | 70% | 1032.8 hPa | 0 mm | - | 277 W/m² | - |
| 1777939830 | 13.33° C | 71% | 1032.8 hPa | 0 mm | - | 317 W/m² | - |
| 1777936241 | 12.78° C | 72% | 1033.5 hPa | 0 mm | - | 264 W/m² | - |
| 1777933821 | 12.22° C | 72% | 1033.6 hPa | 0 mm | - | 212 W/m² | - |
| 1777932631 | 11.67° C | 73% | 1033.6 hPa | 0 mm | - | 175 W/m² | - |
| 1777920027 | 11.11° C | 74% | 1033.3 hPa | 0 mm | - | 0 W/m² | - |
| 1777916438 | 11.67° C | 74% | 1033.3 hPa | 0 mm | - | 0 W/m² | - |
| 1777915833 | 11.67° C | 74% | 1033.2 hPa | 0 mm | - | 0 W/m² | - |
| 1777914018 | 11.67° C | 76% | 1033.3 hPa | 0 mm | - | 0 W/m² | - |
* Rain latest hour (hover to see other rain measurements)
** Current wind speed in m/s (hover to see current wind gust speed)